Sandy Lake Airport
CZSJ : now visible

Airfield :











YOU CAN JOIN US ON...

 
LOGIN :

Register | Disclaimer

   EN    FR    IT 

 









Legend :    VFR   Marginal VFR   IFR   Intensive IFR   Very Intensive IFR
Visi :
Ceiling :
>= 8 km
>= 3000ft
5 to 8 km
1000 to 3000 ft
1500m to 5 km
500 to 1000 ft
800 to 1500m
200 to 500 ft
< 800m
< 200 ft
Symbols :   Thunderstorms  Fog  Heavy snow  Heavy precipitations  Wind > 20 kt






- Airport Elevation : 951 ft
- IATA code : ZSJ


CZSJ - Sandy Lake

CURRENT METAR :
  • 011400Z AUTO VRB02KT 9SM CLR M33/M37 A2991 RMK SLP178

EXPIRED METARs :
  • 011300Z AUTO 27004KT 220V290 9SM FEW096 M33/M37 A2992 RMK SLP180
  • 011200Z AUTO 26004KT 9SM CLR M33/M36 A2992 RMK SLP178

TAF TAF CZSJ
Valid from the 01 at 11:00 until the 01 at 23:00 UTC


011040Z 0111/0123 VRB03KT 6SM HZ SCT020
TEMPO 0111/0114 4SM -SN BKN020
FM011400 25007KT P6SM FEW030
TEMPO 0114/0123 4SM IC
BECMG 0116/0118 25010G20KT RMK FCST BASED ON AUTO OBS. NXT FCST BY 011800Z
CZWG FIR / North America



MET'MAP, your aeronautical weather chart ! - Copyright ORBIFLY December 2007 - Disclaimer

ORBIFLY MET'MAP TEAM :

Programming & Development : Alexandra Zaïnal
Original concept : Baudouin d'Aumeries
Technical & hardware support : Manuel Goepfert
Assistance : Marc-Olivier Méhu




SOURCES & CREDITS :

   NOAA       Earth
Advisory